Terminal Aerodrome Forecast
Issued by NWS

Home | Current Version | Previous Version | Text Only | Print | Product List | Glossary On
Versions: 1 2 3 4 5 6 7 8 9 10 11 12 13 14 15 16 17 18 19 20 21 22 23 24 25 26 27 28 29 30 31 32 33 34 35 36
000
FTUS43 KPAH 141133
TAFOWB
TAF
KOWB 141133Z 1412/1512 13008KT P6SM -SN BKN025 OVC035
     FM141700 14009KT 4SM -SNPL BR OVC025
      TEMPO 1418/1422 6SM -FZRAPL BR OVC015
     FM142200 15009KT 6SM -FZRA BR OVC012
     FM150300 17005KT 5SM BR OVC008=

USA.gov is the U.S. government's official web portal to all federal, state and local government web resources and services.